MAS840 WIBB-WMKK
Flight info
| Callsign | MAS840 |
|---|---|
| Flight time | 0h 38m |
| Altitude | 23000 |
| Route | SALAX SALAX3J |
| Aircraft | B738/M-SDE2E3FGHIRWXY/LB1 |
Departure
| Time | 2026-04-15 08:29 |
|---|---|
| Airport | Sultan Syarif Kasim II International Airport / Roesmin Nurjadin AFB (WIBB) |
Arrival
| Time | 2026-04-15 09:07 |
|---|---|
| Airport | Kuala Lumpur International Airport (WMKK) |
| Time | Latitude | Longitude | Altitude | Speed | Heading |
|---|---|---|---|---|---|
| 2026-04-15 08:29 | 0.40827 | 101.40627 | 3800 ft | 243 kts | 246° |
| 2026-04-15 08:29 | 0.40098 | 101.39025 | 4323 ft | 262 kts | 245° |
| 2026-04-15 08:29 | 0.39306 | 101.37341 | 5189 ft | 270 kts | 244° |
| 2026-04-15 08:29 | 0.38486 | 101.35629 | 5769 ft | 274 kts | 244° |
| 2026-04-15 08:30 | 0.37688 | 101.33903 | 5962 ft | 276 kts | 250° |
| 2026-04-15 08:30 | 0.37515 | 101.32009 | 5981 ft | 276 kts | 279° |
| 2026-04-15 08:30 | 0.38254 | 101.30248 | 5980 ft | 278 kts | 306° |
| 2026-04-15 08:30 | 0.39683 | 101.28954 | 5979 ft | 281 kts | 328° |
| 2026-04-15 08:31 | 0.41433 | 101.28076 | 5983 ft | 282 kts | 334° |
| 2026-04-15 08:31 | 0.43223 | 101.27261 | 5976 ft | 283 kts | 334° |
| 2026-04-15 08:31 | 0.45015 | 101.26438 | 5977 ft | 283 kts | 334° |
| 2026-04-15 08:31 | 0.46801 | 101.25602 | 5980 ft | 283 kts | 333° |
| 2026-04-15 08:32 | 0.48575 | 101.24764 | 5980 ft | 283 kts | 333° |
| 2026-04-15 08:32 | 0.50354 | 101.23919 | 5969 ft | 282 kts | 333° |
| 2026-04-15 08:32 | 0.52232 | 101.23384 | 5973 ft | 285 kts | 358° |
| 2026-04-15 08:32 | 0.54232 | 101.23530 | 6467 ft | 292 kts | 5° |
| 2026-04-15 08:33 | 0.56249 | 101.23715 | 7612 ft | 290 kts | 4° |
| 2026-04-15 08:33 | 0.58265 | 101.23886 | 8627 ft | 293 kts | 4° |
| 2026-04-15 08:33 | 0.60317 | 101.24058 | 9542 ft | 299 kts | 4° |
| 2026-04-15 08:33 | 0.62409 | 101.24234 | 10410 ft | 307 kts | 4° |
| 2026-04-15 08:34 | 0.64619 | 101.24422 | 10732 ft | 333 kts | 4° |
| 2026-04-15 08:34 | 0.66996 | 101.24626 | 11179 ft | 350 kts | 4° |
| 2026-04-15 08:34 | 0.69454 | 101.24838 | 11952 ft | 356 kts | 4° |
| 2026-04-15 08:34 | 0.71933 | 101.25049 | 12831 ft | 359 kts | 4° |
| 2026-04-15 08:35 | 0.74429 | 101.25242 | 13692 ft | 361 kts | 4° |
| 2026-04-15 08:35 | 0.76944 | 101.25429 | 14529 ft | 364 kts | 4° |
| 2026-04-15 08:35 | 0.79437 | 101.25883 | 15265 ft | 369 kts | 21° |
| 2026-04-15 08:35 | 0.81610 | 101.27248 | 15998 ft | 372 kts | 43° |
| 2026-04-15 08:36 | 0.83188 | 101.29291 | 16715 ft | 375 kts | 62° |
| 2026-04-15 08:36 | 0.84376 | 101.31616 | 17466 ft | 377 kts | 64° |
| 2026-04-15 08:36 | 0.85531 | 101.33973 | 18197 ft | 379 kts | 64° |
| 2026-04-15 08:36 | 0.86715 | 101.36340 | 18873 ft | 382 kts | 63° |
| 2026-04-15 08:37 | 0.87813 | 101.38491 | 19408 ft | 386 kts | 63° |
| 2026-04-15 08:37 | 0.89161 | 101.40833 | 19933 ft | 393 kts | 52° |
| 2026-04-15 08:37 | 0.90435 | 101.42120 | 20274 ft | 396 kts | 38° |
| 2026-04-15 08:37 | 0.93750 | 101.43738 | 21050 ft | 402 kts | 14° |
| 2026-04-15 08:38 | 0.95589 | 101.43989 | 21393 ft | 405 kts | 2° |
| 2026-04-15 08:38 | 0.98452 | 101.44001 | 21958 ft | 408 kts | 360° |
| 2026-04-15 08:38 | 1.01301 | 101.43952 | 22426 ft | 413 kts | 359° |
| 2026-04-15 08:38 | 1.04184 | 101.43893 | 22791 ft | 417 kts | 359° |
| 2026-04-15 08:39 | 1.08064 | 101.43826 | 22797 ft | 423 kts | 359° |
| 2026-04-15 08:39 | 1.10058 | 101.43800 | 22797 ft | 422 kts | 360° |
| 2026-04-15 08:39 | 1.12988 | 101.43771 | 22801 ft | 421 kts | 360° |
| 2026-04-15 08:39 | 1.15917 | 101.43749 | 22808 ft | 421 kts | 0° |
| 2026-04-15 08:40 | 1.18842 | 101.43730 | 22806 ft | 421 kts | 0° |
| 2026-04-15 08:40 | 1.21779 | 101.43711 | 22805 ft | 422 kts | 0° |
| 2026-04-15 08:40 | 1.24672 | 101.43693 | 22805 ft | 422 kts | 0° |
| 2026-04-15 08:40 | 1.27647 | 101.43674 | 22803 ft | 422 kts | 0° |
| 2026-04-15 08:41 | 1.30581 | 101.43655 | 22805 ft | 422 kts | 0° |
| 2026-04-15 08:41 | 1.33517 | 101.43636 | 22806 ft | 422 kts | 0° |
| 2026-04-15 08:41 | 1.36407 | 101.43617 | 22812 ft | 421 kts | 0° |
| 2026-04-15 08:41 | 1.39381 | 101.43598 | 22815 ft | 421 kts | 0° |
| 2026-04-15 08:42 | 1.42273 | 101.43583 | 22814 ft | 421 kts | 0° |
| 2026-04-15 08:42 | 1.45196 | 101.43621 | 22815 ft | 421 kts | 1° |
| 2026-04-15 08:42 | 1.48130 | 101.43697 | 22815 ft | 421 kts | 2° |
| 2026-04-15 08:42 | 1.51055 | 101.43785 | 22815 ft | 421 kts | 2° |
| 2026-04-15 08:43 | 1.53987 | 101.43872 | 22814 ft | 421 kts | 2° |
| 2026-04-15 08:43 | 1.56953 | 101.43956 | 22814 ft | 421 kts | 2° |
| 2026-04-15 08:43 | 1.59845 | 101.44033 | 22816 ft | 421 kts | 2° |
| 2026-04-15 08:43 | 1.62774 | 101.44109 | 22815 ft | 421 kts | 2° |
| 2026-04-15 08:44 | 1.65705 | 101.44182 | 22813 ft | 421 kts | 2° |
| 2026-04-15 08:44 | 1.68675 | 101.44256 | 22815 ft | 421 kts | 2° |
| 2026-04-15 08:44 | 1.71597 | 101.44329 | 22815 ft | 421 kts | 2° |
| 2026-04-15 08:44 | 1.74528 | 101.44402 | 22815 ft | 421 kts | 2° |
| 2026-04-15 08:45 | 1.77416 | 101.44474 | 22800 ft | 409 kts | 2° |
| 2026-04-15 08:45 | 1.80225 | 101.44543 | 22613 ft | 398 kts | 2° |
| 2026-04-15 08:45 | 1.82711 | 101.44605 | 22355 ft | 391 kts | 2° |
| 2026-04-15 08:45 | 1.85418 | 101.44672 | 21917 ft | 388 kts | 2° |
| 2026-04-15 08:46 | 1.88101 | 101.44739 | 21498 ft | 383 kts | 2° |
| 2026-04-15 08:46 | 1.90741 | 101.44805 | 21075 ft | 378 kts | 2° |
| 2026-04-15 08:46 | 1.93360 | 101.44870 | 20648 ft | 374 kts | 2° |
| 2026-04-15 08:46 | 1.95957 | 101.44935 | 20229 ft | 373 kts | 2° |
| 2026-04-15 08:47 | 1.98550 | 101.45018 | 19797 ft | 372 kts | 6° |
| 2026-04-15 08:47 | 2.00987 | 101.45657 | 19358 ft | 369 kts | 26° |
| 2026-04-15 08:47 | 2.03250 | 101.46829 | 18956 ft | 363 kts | 29° |
| 2026-04-15 08:47 | 2.05446 | 101.48045 | 18531 ft | 360 kts | 30° |
| 2026-04-15 08:48 | 2.07623 | 101.49255 | 18115 ft | 356 kts | 29° |
| 2026-04-15 08:48 | 2.09583 | 101.50330 | 17744 ft | 353 kts | 29° |
| 2026-04-15 08:48 | 2.11740 | 101.51496 | 17347 ft | 353 kts | 28° |
| 2026-04-15 08:48 | 2.13903 | 101.52657 | 16931 ft | 353 kts | 28° |
| 2026-04-15 08:49 | 2.16069 | 101.53822 | 16517 ft | 353 kts | 30° |
| 2026-04-15 08:49 | 2.17946 | 101.55382 | 16075 ft | 351 kts | 52° |
| 2026-04-15 08:49 | 2.19068 | 101.57512 | 15700 ft | 346 kts | 74° |
| 2026-04-15 08:49 | 2.19406 | 101.59872 | 15346 ft | 344 kts | 91° |
| 2026-04-15 08:50 | 2.19011 | 101.62229 | 14982 ft | 344 kts | 105° |
| 2026-04-15 08:50 | 2.18336 | 101.64521 | 14605 ft | 344 kts | 107° |
| 2026-04-15 08:50 | 2.17626 | 101.66766 | 14239 ft | 343 kts | 108° |
| 2026-04-15 08:50 | 2.16897 | 101.69062 | 13863 ft | 342 kts | 108° |
| 2026-04-15 08:51 | 2.16188 | 101.71330 | 13498 ft | 342 kts | 108° |
| 2026-04-15 08:51 | 2.15489 | 101.73604 | 13135 ft | 341 kts | 108° |
| 2026-04-15 08:51 | 2.14808 | 101.75839 | 12769 ft | 340 kts | 107° |
| 2026-04-15 08:51 | 2.14124 | 101.78100 | 12399 ft | 340 kts | 108° |
| 2026-04-15 08:52 | 2.13432 | 101.80393 | 12032 ft | 339 kts | 108° |
| 2026-04-15 08:52 | 2.12751 | 101.82650 | 11686 ft | 339 kts | 108° |
| 2026-04-15 08:52 | 2.12085 | 101.84858 | 11470 ft | 334 kts | 108° |
| 2026-04-15 08:52 | 2.11439 | 101.87109 | 11124 ft | 332 kts | 102° |
| 2026-04-15 08:53 | 2.11447 | 101.89362 | 10776 ft | 328 kts | 77° |
| 2026-04-15 08:53 | 2.12341 | 101.91433 | 10450 ft | 324 kts | 56° |
| 2026-04-15 08:53 | 2.13882 | 101.93077 | 10107 ft | 319 kts | 38° |
| 2026-04-15 08:53 | 2.15634 | 101.94399 | 9939 ft | 310 kts | 36° |
| 2026-04-15 08:54 | 2.17337 | 101.95637 | 9931 ft | 296 kts | 36° |
| 2026-04-15 08:54 | 2.18981 | 101.96837 | 9549 ft | 296 kts | 36° |
| 2026-04-15 08:54 | 2.20635 | 101.98059 | 9387 ft | 288 kts | 36° |
| 2026-04-15 08:54 | 2.22065 | 101.99124 | 9160 ft | 284 kts | 37° |
| 2026-04-15 08:55 | 2.23376 | 102.00104 | 8849 ft | 284 kts | 37° |
| 2026-04-15 08:55 | 2.24955 | 102.01294 | 8511 ft | 284 kts | 37° |
| 2026-04-15 08:55 | 2.26644 | 102.02299 | 8192 ft | 282 kts | 17° |
| 2026-04-15 08:55 | 2.28559 | 102.02703 | 8003 ft | 280 kts | 9° |
| 2026-04-15 08:56 | 2.30461 | 102.03063 | 7771 ft | 275 kts | 11° |
| 2026-04-15 08:56 | 2.32324 | 102.03435 | 7597 ft | 271 kts | 11° |
| 2026-04-15 08:56 | 2.34129 | 102.03808 | 7487 ft | 260 kts | 11° |
| 2026-04-15 08:56 | 2.35852 | 102.04127 | 7406 ft | 245 kts | 2° |
| 2026-04-15 08:57 | 2.37456 | 102.03825 | 7289 ft | 229 kts | 332° |
| 2026-04-15 08:57 | 2.38689 | 102.02911 | 7133 ft | 217 kts | 311° |
| 2026-04-15 08:57 | 2.39621 | 102.01746 | 6862 ft | 213 kts | 306° |
| 2026-04-15 08:57 | 2.40494 | 102.00550 | 6520 ft | 213 kts | 305° |
| 2026-04-15 08:58 | 2.41360 | 101.99357 | 6199 ft | 211 kts | 305° |
| 2026-04-15 08:58 | 2.43082 | 101.97001 | 5566 ft | 209 kts | 306° |
| 2026-04-15 08:58 | 2.43928 | 101.95843 | 5437 ft | 203 kts | 305° |
| 2026-04-15 08:59 | 2.44775 | 101.94713 | 5354 ft | 204 kts | 306° |
| 2026-04-15 08:59 | 2.45618 | 101.93570 | 5273 ft | 209 kts | 305° |
| 2026-04-15 08:59 | 2.46478 | 101.92398 | 5204 ft | 209 kts | 306° |
| 2026-04-15 08:59 | 2.47353 | 101.91230 | 5113 ft | 209 kts | 306° |
| 2026-04-15 09:00 | 2.48327 | 101.90142 | 5016 ft | 212 kts | 324° |
| 2026-04-15 09:00 | 2.49533 | 101.89336 | 4938 ft | 207 kts | 324° |
| 2026-04-15 09:00 | 2.50694 | 101.88510 | 4851 ft | 201 kts | 322° |
| 2026-04-15 09:00 | 2.51806 | 101.87725 | 4772 ft | 191 kts | 325° |
| 2026-04-15 09:01 | 2.52894 | 101.86995 | 4663 ft | 186 kts | 325° |
| 2026-04-15 09:01 | 2.53973 | 101.86282 | 4551 ft | 185 kts | 326° |
| 2026-04-15 09:01 | 2.55044 | 101.85576 | 4511 ft | 184 kts | 325° |
| 2026-04-15 09:01 | 2.56114 | 101.84863 | 4422 ft | 188 kts | 325° |
| 2026-04-15 09:02 | 2.57204 | 101.84130 | 4190 ft | 189 kts | 325° |
| 2026-04-15 09:02 | 2.58285 | 101.83401 | 3940 ft | 185 kts | 325° |
| 2026-04-15 09:02 | 2.59339 | 101.82682 | 3703 ft | 182 kts | 325° |
| 2026-04-15 09:02 | 2.60384 | 101.81980 | 3464 ft | 181 kts | 324° |
| 2026-04-15 09:03 | 2.61423 | 101.81281 | 3218 ft | 179 kts | 324° |
| 2026-04-15 09:03 | 2.62444 | 101.80592 | 2980 ft | 175 kts | 324° |
| 2026-04-15 09:03 | 2.63440 | 101.79919 | 2756 ft | 171 kts | 325° |
| 2026-04-15 09:03 | 2.64412 | 101.79263 | 2521 ft | 167 kts | 325° |
| 2026-04-15 09:04 | 2.65360 | 101.78623 | 2323 ft | 165 kts | 325° |
| 2026-04-15 09:04 | 2.66308 | 101.77982 | 2097 ft | 164 kts | 326° |
| 2026-04-15 09:04 | 2.67234 | 101.77357 | 1903 ft | 159 kts | 326° |
| 2026-04-15 09:04 | 2.68167 | 101.76726 | 1677 ft | 159 kts | 326° |
| 2026-04-15 09:05 | 2.69074 | 101.76116 | 1455 ft | 160 kts | 326° |
| 2026-04-15 09:05 | 2.69994 | 101.75492 | 1259 ft | 156 kts | 326° |
| 2026-04-15 09:05 | 2.70877 | 101.74895 | 1034 ft | 151 kts | 327° |
| 2026-04-15 09:05 | 2.71745 | 101.74309 | 839 ft | 151 kts | 327° |
| 2026-04-15 09:06 | 2.72613 | 101.73722 | 635 ft | 148 kts | 327° |
| 2026-04-15 09:06 | 2.73454 | 101.73141 | 461 ft | 150 kts | 326° |
| 2026-04-15 09:06 | 2.74359 | 101.72543 | 260 ft | 153 kts | 326° |
| 2026-04-15 09:06 | 2.75212 | 101.71959 | 93 ft | 140 kts | 326° |
| 2026-04-15 09:07 | 2.75949 | 101.71458 | 69 ft | 114 kts | 327° |
| 2026-04-15 09:07 | 2.76524 | 101.71071 | 59 ft | 81 kts | 326° |
| 2026-04-15 09:07 | 2.76817 | 101.70871 | 67 ft | 28 kts | 308° |
| 2026-04-15 09:07 | 2.76891 | 101.70744 | 66 ft | 18 kts | 299° |
| 2026-04-15 09:08 | 2.76911 | 101.70644 | 62 ft | 11 kts | 234° |
| 2026-04-15 09:08 | 2.76837 | 101.70637 | 60 ft | 12 kts | 149° |
| 2026-04-15 09:08 | 2.76762 | 101.70685 | 59 ft | 14 kts | 147° |
| 2026-04-15 09:08 | 2.76679 | 101.70739 | 63 ft | 14 kts | 146° |
| 2026-04-15 09:09 | 2.76600 | 101.70792 | 59 ft | 13 kts | 145° |
| 2026-04-15 09:09 | 2.76526 | 101.70844 | 59 ft | 13 kts | 147° |
| 2026-04-15 09:09 | 2.76453 | 101.70892 | 58 ft | 12 kts | 146° |
| 2026-04-15 09:09 | 2.76373 | 101.70946 | 65 ft | 16 kts | 146° |
| 2026-04-15 09:10 | 2.76264 | 101.71012 | 59 ft | 20 kts | 156° |
| 2026-04-15 09:10 | 2.76133 | 101.71041 | 68 ft | 19 kts | 173° |
| 2026-04-15 09:10 | 2.76010 | 101.71080 | 65 ft | 18 kts | 146° |
| 2026-04-15 09:10 | 2.75921 | 101.71137 | 66 ft | 14 kts | 147° |
| 2026-04-15 09:11 | 2.75876 | 101.71166 | 63 ft | 2 kts | 147° |
| 2026-04-15 09:11 | 2.75863 | 101.71174 | 66 ft | 2 kts | 147° |
| 2026-04-15 09:11 | 2.75851 | 101.71183 | 63 ft | 2 kts | 145° |
| 2026-04-15 09:11 | 2.75830 | 101.71197 | 67 ft | 5 kts | 145° |
| 2026-04-15 09:12 | 2.75791 | 101.71224 | 65 ft | 8 kts | 145° |
| 2026-04-15 09:12 | 2.75737 | 101.71262 | 68 ft | 12 kts | 145° |
| 2026-04-15 09:12 | 2.75642 | 101.71315 | 68 ft | 19 kts | 176° |
| 2026-04-15 09:12 | 2.75556 | 101.71232 | 67 ft | 17 kts | 238° |
| 2026-04-15 09:13 | 2.75526 | 101.71187 | 65 ft | 0 kts | 235° |
| 2026-04-15 09:13 | 2.75525 | 101.71186 | 67 ft | 0 kts | 235° |
| 2026-04-15 09:13 | 2.75518 | 101.71176 | 68 ft | 6 kts | 235° |
| 2026-04-15 09:13 | 2.75478 | 101.71114 | 67 ft | 12 kts | 237° |
| 2026-04-15 09:14 | 2.75430 | 101.71041 | 68 ft | 13 kts | 236° |
| 2026-04-15 09:14 | 2.75379 | 101.70965 | 64 ft | 13 kts | 236° |
| 2026-04-15 09:14 | 2.75331 | 101.70892 | 62 ft | 11 kts | 236° |
| 2026-04-15 09:14 | 2.75306 | 101.70856 | 72 ft | 0 kts | 236° |
| 2026-04-15 09:15 | 2.75299 | 101.70844 | 68 ft | 5 kts | 248° |
| 2026-04-15 09:15 | 2.75313 | 101.70815 | 65 ft | 5 kts | 323° |
| 2026-04-15 09:15 | 2.75343 | 101.70797 | 71 ft | 5 kts | 327° |
| 2026-04-15 09:15 | 2.75358 | 101.70787 | 68 ft | 0 kts | 326° |
| 2026-04-15 09:16 | 2.75363 | 101.70783 | 72 ft | 0 kts | 326° |